• Join FlightAware (Why Join?)
  • Login
  • US Flag 
04:04AM EDT


 

Airport Tracker/Info


-or-


 

Live Flight TrackerFlight Track Log ✈ LOF3356 ✈ 23-Apr-2013 ✈ KIAD - KCVG

Flight Track Log - Related Links

Times and Time Zones

All times are in EDT time to prevent confusion due to time zone crossing. See the LOF3356 flight status page for this flight to view local times or setup timezone preferences in your user account.

Time Position Orientation Groundspeed Altitude Reporting Facility
EDT Latitude Longitude Course Direction KTS MPH feet Rate Location/Type
06:05PM 38.9500 -77.5000 252° West 167 192 1,600  Level Potomac TRACON
06:06PM 38.9333 -77.5667 252° West 231 266 3,400 2,340 Climbing Potomac TRACON
06:07PM 38.9000 -77.6667 247° West 258 297 6,400 2,940 Climbing Potomac TRACON
06:07PM 38.8925 -77.7147 259° West 258 297 7,800 2,400 Climbing Washington Center
06:08PM 38.8517 -77.7828 232° Southwest 280 322 10,000 1,680 Climbing Washington Center
06:09PM 38.8064 -77.8719 237° Southwest 299 344 11,200 1,500 Climbing Washington Center
06:10PM 38.7978 -77.9864 265° West 314 361 13,100 1,860 Climbing Washington Center
06:11PM 38.8269 -78.0964 289° West 309 356 15,000 1,800 Climbing Washington Center
06:12PM 38.8536 -78.2094 287° West 320 368 16,800 1,440 Climbing Washington Center
06:13PM 38.8531 -78.3319 270° West 334 384 17,900 1,320 Climbing Washington Center
06:14PM 38.8522 -78.4597 270° West 346 398 19,500 1,500 Climbing Washington Center
06:15PM 38.8511 -78.5878 269° West 351 404 20,900 1,380 Climbing Washington Center
06:16PM 38.8497 -78.7236 269° West 369 425 22,300 1,800 Climbing Washington Center
06:17PM 38.8483 -78.8569 269° West 374 430 24,500 2,100 Climbing Washington Center
06:18PM 38.8469 -78.9822 269° West 374 430 26,600 2,100 Climbing Washington Center
06:19PM 38.8436 -79.0992 268° West 353 406 28,700 1,620 Climbing Washington Center
06:20PM 38.8442 -79.2167 270° West 340 391 29,900 600 Climbing Washington Center
06:21PM 38.8403 -79.3444 268° West 340 391 30,000  Climbing Washington Center
06:22PM 38.8381 -79.4775 269° West 366 421 30,000  Level Washington Center
06:23PM 38.8347 -79.6400 269° West 405 466 30,000  Level Washington Center
06:24PM 38.8303 -79.7756 268° West 405 466 30,000  Level Washington Center
06:25PM 38.8275 -79.9114 269° West 398 458 30,000  Level Washington Center
06:26PM 38.8231 -80.0336 267° West 387 445 30,000 240 Level Washington Center
06:27PM 38.8189 -80.1514 267° West 383 441 30,500 660 Climbing Indianapolis Center
06:28PM 38.8147 -80.2822 268° West 372 428 31,400 720 Climbing Indianapolis Center
06:29PM 38.8125 -80.4119 269° West 365 420 32,000 240 Climbing Indianapolis Center
06:30PM 38.8081 -80.5725 268° West 376 433 32,000  Level Indianapolis Center
06:31PM 38.8028 -80.7103 267° West 385 443 32,000 -60 Level Indianapolis Center
06:32PM 38.7986 -80.8506 268° West 393 452 31,900 -540 Descending Indianapolis Center
06:33PM 38.7939 -80.9842 267° West 378 435 31,000 -960 Descending Indianapolis Center
06:34PM 38.7906 -81.1183 268° West 376 433 30,000 -1,020 Descending Indianapolis Center
06:35PM 38.7856 -81.2592 267° West 395 455 28,900 -1,020 Descending Indianapolis Center
06:36PM 38.7792 -81.4306 267° West 405 466 27,900 -480 Descending Indianapolis Center
06:37PM 38.7739 -81.5700 267° West 395 455 28,000  Climbing Indianapolis Center
06:38PM 38.7686 -81.6997 267° West 388 447 28,000  Level Indianapolis Center
06:39PM 38.7631 -81.8353 267° West 385 443 28,000 -60 Level Indianapolis Center
06:40PM 38.7561 -82.0006 267° West 388 447 27,900 -780 Descending Indianapolis Center
06:41PM 38.7267 -82.1328 254° West 387 445 26,400 -1,500 Descending Indianapolis Center
06:42PM 38.6925 -82.2631 251° West 388 447 24,900 -1,200 Descending Indianapolis Center
06:44PM 38.6583 -82.3922 251° West 385 443 24,000 -480 Descending Indianapolis Center
06:45PM 38.6222 -82.5242 251° West 380 437 24,000 -480 Level Indianapolis Center
06:46PM 38.5883 -82.6514 251° West 379 436 23,100 -1,020 Descending Indianapolis Center
06:47PM 38.5469 -82.8039 251° West 387 445 22,000 -540 Descending Indianapolis Center
06:48PM 38.5133 -82.9275 251° West 374 430 22,000  Level Indianapolis Center
06:49PM 38.4792 -83.0517 251° West 372 428 22,000 -660 Level Indianapolis Center
06:50PM 38.4900 -83.1700 277° West 345 397 20,700 -1,320 Descending Indianapolis Center
06:51PM 38.5097 -83.2903 282° West 346 398 19,300 -1,440 Descending Indianapolis Center
06:52PM 38.5281 -83.4058 281° West 336 387 17,800 -1,800 Descending Indianapolis Center
06:53PM 38.5500 -83.5322 283° West 317 365 15,700 -1,860 Descending Indianapolis Center
06:54PM 38.5678 -83.6328 283° West 298 343 14,000 -1,680 Descending Indianapolis Center
06:55PM 38.5839 -83.7344 281° West 293 337 12,300 -1,620 Descending Indianapolis Center
06:56PM 38.5978 -83.8219 282° West 261 300 10,700 -1,080 Descending Indianapolis Center
06:57PM 38.6119 -83.9083 282° West 251 289 10,100 -420 Descending Indianapolis Center
06:58PM 38.6572 -84.0056 301° West 281 323 9,900 -120 Descending Indianapolis Center
06:59PM 38.7061 -84.0981 304° West 304 350 9,900 -60 Level Indianapolis Center
07:00PM 38.7544 -84.1939 303° West 315 362 9,800 -420 Descending Indianapolis Center
07:01PM 38.7939 -84.2700 304° West 256 295 9,100 -480 Descending Indianapolis Center
07:02PM 38.8311 -84.3422 304° West 245 282 8,900 -120 Descending Indianapolis Center
07:03PM 38.8717 -84.4206 304° West 260 299 8,900  Level Indianapolis Center
07:04PM 38.9000 -84.4833 300° West 250 288 9,000  Climbing Cincinnati TRACON
07:05PM 38.9667 -84.5333 330° Northwest 272 313 9,000 -540 Level Cincinnati TRACON
07:06PM 39.0333 -84.5333 360° North 287 330 8,000 -1,200 Descending Cincinnati TRACON
07:07PM 39.1167 -84.5333 360° North 270 311 6,600 -1,500 Descending Cincinnati TRACON
07:07PM 39.1372 -84.5397 346° North 274 315 6,100 -1,440 Descending Indianapolis Center
07:08PM 39.2094 -84.5461 356° North 264 304 4,700 -1,140 Descending Indianapolis Center
07:09PM 39.2086 -84.6103 269° West 198 228 3,800 -780 Descending Indianapolis Center
07:10PM 39.1833 -84.6500 231° Southwest 169 194 3,400 -720 Descending Cincinnati TRACON
07:11PM 39.1500 -84.6667 201° Southwest 167 192 2,700 -840 Descending Cincinnati TRACON
07:12PM 39.1167 -84.6667 180° South 127 146 1,800 -780 Descending Cincinnati TRACON
07:13PM 39.0667 -84.6667 180° South 118 136 1,100 -660 Descending Cincinnati TRACON
07:15PM 39.0488 -84.6678 215° Southwest  Level Estimated